Haugan, Montana
Current Conditions -  °F | °C
As of 10:53 AM on Monday 24 Nov 2014 (Local Time) from KMLP Reporting Station
Overcast Overcast  
Wind Chill: 25°   Ceiling: 200
Heat Index: 25°   Visibility: 10mi
Dew Point: 22°   Wind: 3mph
Humidity: 88%   Direction: NA
Pressure: 30.23"   Gusts: NA
Location:  47.39°N, 115.4°W
Report Text: KMLP 241753Z AUTO VRB03KT 10SM BKN002 OVC006 M04/M06 A3023 RMK AO2 SLP281 T10391056 11039 21050 52005
Loading
Personal Weather Stations






























Interactive Weather Map New forecast layout! Learn more

10-Day Weather Forecast

Advertisements
Track Severe Weather on mobile